sensor_id;sensor_type;location;lat;lon;timestamp;temperature;humidity
578;DHT22;275;48.492;9.214;2023-02-26T00:00:16;3.80;32.00
578;DHT22;275;48.492;9.214;2023-02-26T00:02:46;4.00;31.70
578;DHT22;275;48.492;9.214;2023-02-26T00:05:14;4.30;30.80
578;DHT22;275;48.492;9.214;2023-02-26T00:07:41;4.10;31.40
578;DHT22;275;48.492;9.214;2023-02-26T00:10:11;4.00;31.60
578;DHT22;275;48.492;9.214;2023-02-26T00:12:38;3.80;31.90
578;DHT22;275;48.492;9.214;2023-02-26T00:15:09;3.80;32.50
578;DHT22;275;48.492;9.214;2023-02-26T00:17:41;4.00;31.50
578;DHT22;275;48.492;9.214;2023-02-26T00:20:11;4.20;31.10
578;DHT22;275;48.492;9.214;2023-02-26T00:22:39;4.20;30.90
578;DHT22;275;48.492;9.214;2023-02-26T00:25:06;3.60;32.10
578;DHT22;275;48.492;9.214;2023-02-26T00:27:33;2.90;34.20
578;DHT22;275;48.492;9.214;2023-02-26T00:30:01;2.90;34.40
578;DHT22;275;48.492;9.214;2023-02-26T00:32:30;3.00;33.80
578;DHT22;275;48.492;9.214;2023-02-26T00:34:58;3.30;33.40
578;DHT22;275;48.492;9.214;2023-02-26T00:37:54;3.70;32.90
578;DHT22;275;48.492;9.214;2023-02-26T00:40:29;3.80;32.40
578;DHT22;275;48.492;9.214;2023-02-26T00:43:00;3.10;33.80
578;DHT22;275;48.492;9.214;2023-02-26T00:45:28;3.20;33.80
578;DHT22;275;48.492;9.214;2023-02-26T00:48:11;3.50;32.70
578;DHT22;275;48.492;9.214;2023-02-26T00:50:45;3.50;32.80
578;DHT22;275;48.492;9.214;2023-02-26T00:53:19;3.50;32.90
578;DHT22;275;48.492;9.214;2023-02-26T00:55:47;3.70;32.70
578;DHT22;275;48.492;9.214;2023-02-26T00:58:14;3.40;33.10
578;DHT22;275;48.492;9.214;2023-02-26T01:00:41;3.30;33.50
578;DHT22;275;48.492;9.214;2023-02-26T01:03:09;3.60;32.50
578;DHT22;275;48.492;9.214;2023-02-26T01:05:37;3.40;33.10
578;DHT22;275;48.492;9.214;2023-02-26T01:08:11;3.80;32.20
578;DHT22;275;48.492;9.214;2023-02-26T01:10:40;4.20;31.60
578;DHT22;275;48.492;9.214;2023-02-26T01:13:07;3.00;34.70
578;DHT22;275;48.492;9.214;2023-02-26T01:15:35;2.60;35.40
578;DHT22;275;48.492;9.214;2023-02-26T01:18:05;3.10;34.40
578;DHT22;275;48.492;9.214;2023-02-26T01:20:39;3.30;33.70
578;DHT22;275;48.492;9.214;2023-02-26T01:23:10;3.90;32.00
578;DHT22;275;48.492;9.214;2023-02-26T01:25:42;3.50;32.90
578;DHT22;275;48.492;9.214;2023-02-26T01:28:10;3.90;32.10
578;DHT22;275;48.492;9.214;2023-02-26T01:30:37;3.90;31.70
578;DHT22;275;48.492;9.214;2023-02-26T01:33:09;3.60;32.30
578;DHT22;275;48.492;9.214;2023-02-26T01:35:42;3.30;32.80
578;DHT22;275;48.492;9.214;2023-02-26T01:38:19;3.50;32.20
578;DHT22;275;48.492;9.214;2023-02-26T01:41:13;3.60;32.20
578;DHT22;275;48.492;9.214;2023-02-26T01:43:50;2.80;34.10
578;DHT22;275;48.492;9.214;2023-02-26T01:46:27;2.80;34.40
578;DHT22;275;48.492;9.214;2023-02-26T01:48:57;2.50;35.20
578;DHT22;275;48.492;9.214;2023-02-26T01:51:44;2.40;35.10
578;DHT22;275;48.492;9.214;2023-02-26T01:54:12;2.90;34.10
578;DHT22;275;48.492;9.214;2023-02-26T01:56:40;2.80;34.10
578;DHT22;275;48.492;9.214;2023-02-26T01:59:10;2.50;34.10
578;DHT22;275;48.492;9.214;2023-02-26T02:01:39;2.80;33.60
578;DHT22;275;48.492;9.214;2023-02-26T02:04:09;2.80;33.80
578;DHT22;275;48.492;9.214;2023-02-26T02:06:37;2.60;34.10
578;DHT22;275;48.492;9.214;2023-02-26T02:09:06;2.70;33.60
578;DHT22;275;48.492;9.214;2023-02-26T02:11:42;2.30;34.80
578;DHT22;275;48.492;9.214;2023-02-26T02:14:18;2.10;35.20
578;DHT22;275;48.492;9.214;2023-02-26T02:16:47;1.90;35.50
578;DHT22;275;48.492;9.214;2023-02-26T02:22:34;2.20;35.20
578;DHT22;275;48.492;9.214;2023-02-26T02:25:19;2.40;35.20
578;DHT22;275;48.492;9.214;2023-02-26T02:27:58;2.20;34.80
578;DHT22;275;48.492;9.214;2023-02-26T02:30:34;1.80;35.70
578;DHT22;275;48.492;9.214;2023-02-26T02:33:10;2.50;34.50
578;DHT22;275;48.492;9.214;2023-02-26T02:35:41;2.70;33.40
578;DHT22;275;48.492;9.214;2023-02-26T02:38:15;2.30;34.60
578;DHT22;275;48.492;9.214;2023-02-26T02:40:45;2.80;33.70
578;DHT22;275;48.492;9.214;2023-02-26T02:43:15;2.80;32.90
578;DHT22;275;48.492;9.214;2023-02-26T02:45:44;2.30;34.10
578;DHT22;275;48.492;9.214;2023-02-26T02:48:17;2.20;34.70
578;DHT22;275;48.492;9.214;2023-02-26T02:50:49;1.90;35.30
578;DHT22;275;48.492;9.214;2023-02-26T02:53:20;2.00;35.20
578;DHT22;275;48.492;9.214;2023-02-26T02:55:53;2.30;34.50
578;DHT22;275;48.492;9.214;2023-02-26T02:58:23;2.60;33.80
578;DHT22;275;48.492;9.214;2023-02-26T03:00:57;2.50;33.10
578;DHT22;275;48.492;9.214;2023-02-26T03:03:32;2.40;33.90
578;DHT22;275;48.492;9.214;2023-02-26T03:06:00;2.60;33.30
578;DHT22;275;48.492;9.214;2023-02-26T03:08:30;2.60;33.50
578;DHT22;275;48.492;9.214;2023-02-26T03:10:58;2.80;32.50
578;DHT22;275;48.492;9.214;2023-02-26T03:13:25;2.40;33.00
578;DHT22;275;48.492;9.214;2023-02-26T03:16:01;1.80;34.70
578;DHT22;275;48.492;9.214;2023-02-26T03:18:40;1.80;34.90
578;DHT22;275;48.492;9.214;2023-02-26T03:21:12;2.30;33.40
578;DHT22;275;48.492;9.214;2023-02-26T03:23:47;1.80;34.70
578;DHT22;275;48.492;9.214;2023-02-26T03:26:20;1.40;35.40
578;DHT22;275;48.492;9.214;2023-02-26T03:28:55;1.80;34.70
578;DHT22;275;48.492;9.214;2023-02-26T03:31:27;1.60;34.60
578;DHT22;275;48.492;9.214;2023-02-26T03:33:59;2.00;33.70
578;DHT22;275;48.492;9.214;2023-02-26T03:36:30;2.30;33.10
578;DHT22;275;48.492;9.214;2023-02-26T03:39:03;2.10;33.70
578;DHT22;275;48.492;9.214;2023-02-26T03:41:35;2.20;33.30
578;DHT22;275;48.492;9.214;2023-02-26T03:44:07;2.70;32.10
578;DHT22;275;48.492;9.214;2023-02-26T03:46:38;2.20;32.90
578;DHT22;275;48.492;9.214;2023-02-26T03:49:13;2.40;32.60
578;DHT22;275;48.492;9.214;2023-02-26T03:51:43;2.30;32.70
578;DHT22;275;48.492;9.214;2023-02-26T03:54:14;2.30;32.50
578;DHT22;275;48.492;9.214;2023-02-26T03:56:43;2.30;32.80
578;DHT22;275;48.492;9.214;2023-02-26T03:59:11;2.70;31.80
578;DHT22;275;48.492;9.214;2023-02-26T04:01:42;2.50;32.10
578;DHT22;275;48.492;9.214;2023-02-26T04:04:16;1.80;33.80
578;DHT22;275;48.492;9.214;2023-02-26T04:06:45;2.10;33.20
578;DHT22;275;48.492;9.214;2023-02-26T04:09:13;2.50;32.10
578;DHT22;275;48.492;9.214;2023-02-26T04:11:40;2.80;31.20
578;DHT22;275;48.492;9.214;2023-02-26T04:14:07;2.10;32.70
578;DHT22;275;48.492;9.214;2023-02-26T04:16:34;1.90;33.70
578;DHT22;275;48.492;9.214;2023-02-26T04:19:00;2.10;33.30
578;DHT22;275;48.492;9.214;2023-02-26T04:21:29;2.30;32.70
578;DHT22;275;48.492;9.214;2023-02-26T04:23:56;2.20;32.90
578;DHT22;275;48.492;9.214;2023-02-26T04:26:22;1.50;34.50
578;DHT22;275;48.492;9.214;2023-02-26T04:28:49;1.50;34.90
578;DHT22;275;48.492;9.214;2023-02-26T04:31:16;1.30;35.40
578;DHT22;275;48.492;9.214;2023-02-26T04:33:43;1.20;35.70
578;DHT22;275;48.492;9.214;2023-02-26T04:36:10;1.00;36.20
578;DHT22;275;48.492;9.214;2023-02-26T04:38:38;1.00;36.30
578;DHT22;275;48.492;9.214;2023-02-26T04:41:05;1.20;36.00
578;DHT22;275;48.492;9.214;2023-02-26T04:43:32;1.10;35.70
578;DHT22;275;48.492;9.214;2023-02-26T04:45:59;0.90;36.40
578;DHT22;275;48.492;9.214;2023-02-26T04:48:26;1.10;36.30
578;DHT22;275;48.492;9.214;2023-02-26T04:50:53;1.60;35.60
578;DHT22;275;48.492;9.214;2023-02-26T04:53:20;1.90;34.20
578;DHT22;275;48.492;9.214;2023-02-26T04:55:48;2.10;33.60
578;DHT22;275;48.492;9.214;2023-02-26T04:58:15;1.90;34.10
578;DHT22;275;48.492;9.214;2023-02-26T05:00:42;1.50;35.00
578;DHT22;275;48.492;9.214;2023-02-26T05:03:13;1.30;35.70
578;DHT22;275;48.492;9.214;2023-02-26T05:05:40;1.70;34.70
578;DHT22;275;48.492;9.214;2023-02-26T05:08:06;2.20;33.50
578;DHT22;275;48.492;9.214;2023-02-26T05:10:33;2.20;33.00
578;DHT22;275;48.492;9.214;2023-02-26T05:13:02;1.80;34.40
578;DHT22;275;48.492;9.214;2023-02-26T05:15:28;2.10;33.80
578;DHT22;275;48.492;9.214;2023-02-26T05:17:55;2.10;33.90
578;DHT22;275;48.492;9.214;2023-02-26T05:20:22;1.70;34.50
578;DHT22;275;48.492;9.214;2023-02-26T05:22:49;1.30;35.50
578;DHT22;275;48.492;9.214;2023-02-26T05:25:16;1.30;35.90
578;DHT22;275;48.492;9.214;2023-02-26T05:27:43;1.90;34.20
578;DHT22;275;48.492;9.214;2023-02-26T05:30:13;2.10;33.60
578;DHT22;275;48.492;9.214;2023-02-26T05:32:41;2.00;33.90
578;DHT22;275;48.492;9.214;2023-02-26T05:35:08;2.00;33.90
578;DHT22;275;48.492;9.214;2023-02-26T05:37:36;1.70;34.60
578;DHT22;275;48.492;9.214;2023-02-26T05:40:06;1.90;34.20
578;DHT22;275;48.492;9.214;2023-02-26T05:42:35;2.10;33.70
578;DHT22;275;48.492;9.214;2023-02-26T05:45:03;2.20;33.20
578;DHT22;275;48.492;9.214;2023-02-26T05:47:32;1.50;34.80
578;DHT22;275;48.492;9.214;2023-02-26T05:49:59;0.90;36.70
578;DHT22;275;48.492;9.214;2023-02-26T05:52:25;1.40;35.60
578;DHT22;275;48.492;9.214;2023-02-26T05:54:53;1.70;34.80
578;DHT22;275;48.492;9.214;2023-02-26T05:57:20;1.80;34.60
578;DHT22;275;48.492;9.214;2023-02-26T05:59:47;1.60;35.10
578;DHT22;275;48.492;9.214;2023-02-26T06:02:14;2.10;33.80
578;DHT22;275;48.492;9.214;2023-02-26T06:04:42;2.10;33.90
578;DHT22;275;48.492;9.214;2023-02-26T06:07:09;1.40;35.20
578;DHT22;275;48.492;9.214;2023-02-26T06:09:36;1.70;34.90
578;DHT22;275;48.492;9.214;2023-02-26T06:12:03;1.90;34.30
578;DHT22;275;48.492;9.214;2023-02-26T06:14:31;2.00;34.00
578;DHT22;275;48.492;9.214;2023-02-26T06:16:58;2.00;33.80
578;DHT22;275;48.492;9.214;2023-02-26T06:19:25;1.40;35.30
578;DHT22;275;48.492;9.214;2023-02-26T06:21:53;1.50;35.20
578;DHT22;275;48.492;9.214;2023-02-26T06:24:20;1.40;35.40
578;DHT22;275;48.492;9.214;2023-02-26T06:26:47;2.00;34.40
578;DHT22;275;48.492;9.214;2023-02-26T06:29:14;2.10;33.80
578;DHT22;275;48.492;9.214;2023-02-26T06:31:43;2.30;32.90
578;DHT22;275;48.492;9.214;2023-02-26T06:34:10;2.20;33.50
578;DHT22;275;48.492;9.214;2023-02-26T06:36:36;2.30;33.00
578;DHT22;275;48.492;9.214;2023-02-26T06:39:05;2.10;33.80
578;DHT22;275;48.492;9.214;2023-02-26T06:41:32;1.70;34.50
578;DHT22;275;48.492;9.214;2023-02-26T06:43:59;2.10;33.90
578;DHT22;275;48.492;9.214;2023-02-26T06:46:26;2.20;33.50
578;DHT22;275;48.492;9.214;2023-02-26T06:48:53;2.00;33.70
578;DHT22;275;48.492;9.214;2023-02-26T06:51:19;1.90;34.20
578;DHT22;275;48.492;9.214;2023-02-26T06:53:46;2.20;33.40
578;DHT22;275;48.492;9.214;2023-02-26T06:56:14;2.10;33.40
578;DHT22;275;48.492;9.214;2023-02-26T06:58:41;1.50;35.10
578;DHT22;275;48.492;9.214;2023-02-26T07:01:08;1.30;35.60
578;DHT22;275;48.492;9.214;2023-02-26T07:03:35;1.10;36.70
578;DHT22;275;48.492;9.214;2023-02-26T07:06:02;1.20;36.00
578;DHT22;275;48.492;9.214;2023-02-26T07:08:29;1.30;35.70
578;DHT22;275;48.492;9.214;2023-02-26T07:10:56;1.70;34.80
578;DHT22;275;48.492;9.214;2023-02-26T07:13:24;1.90;33.90
578;DHT22;275;48.492;9.214;2023-02-26T07:15:51;1.40;35.30
578;DHT22;275;48.492;9.214;2023-02-26T07:18:18;1.40;35.70
578;DHT22;275;48.492;9.214;2023-02-26T07:20:48;1.60;34.50
578;DHT22;275;48.492;9.214;2023-02-26T07:23:15;1.60;34.70
578;DHT22;275;48.492;9.214;2023-02-26T07:25:41;1.50;34.80
578;DHT22;275;48.492;9.214;2023-02-26T07:28:08;1.60;35.40
578;DHT22;275;48.492;9.214;2023-02-26T07:30:36;1.40;36.20
578;DHT22;275;48.492;9.214;2023-02-26T07:33:07;1.70;35.90
578;DHT22;275;48.492;9.214;2023-02-26T07:35:34;2.00;35.00
578;DHT22;275;48.492;9.214;2023-02-26T07:38:01;2.10;34.80
578;DHT22;275;48.492;9.214;2023-02-26T07:40:28;2.20;35.30
578;DHT22;275;48.492;9.214;2023-02-26T07:42:55;2.40;34.60
578;DHT22;275;48.492;9.214;2023-02-26T07:45:22;2.60;34.20
578;DHT22;275;48.492;9.214;2023-02-26T07:47:51;2.80;33.60
578;DHT22;275;48.492;9.214;2023-02-26T07:50:19;2.00;35.80
578;DHT22;275;48.492;9.214;2023-02-26T07:52:50;1.40;37.60
578;DHT22;275;48.492;9.214;2023-02-26T07:55:17;1.40;37.30
578;DHT22;275;48.492;9.214;2023-02-26T07:57:44;1.70;36.90
578;DHT22;275;48.492;9.214;2023-02-26T08:00:12;1.40;37.90
578;DHT22;275;48.492;9.214;2023-02-26T08:02:39;1.30;38.60
578;DHT22;275;48.492;9.214;2023-02-26T08:05:08;1.60;36.90
578;DHT22;275;48.492;9.214;2023-02-26T08:07:34;1.40;37.60
578;DHT22;275;48.492;9.214;2023-02-26T08:10:02;1.40;37.30
578;DHT22;275;48.492;9.214;2023-02-26T08:12:29;1.40;36.90
578;DHT22;275;48.492;9.214;2023-02-26T08:14:55;0.70;38.80
578;DHT22;275;48.492;9.214;2023-02-26T08:17:22;1.00;39.00
578;DHT22;275;48.492;9.214;2023-02-26T08:19:49;1.20;41.00
578;DHT22;275;48.492;9.214;2023-02-26T08:22:17;2.20;37.50
578;DHT22;275;48.492;9.214;2023-02-26T08:24:44;2.10;36.10
578;DHT22;275;48.492;9.214;2023-02-26T08:27:11;1.90;36.30
578;DHT22;275;48.492;9.214;2023-02-26T08:29:37;1.70;37.40
578;DHT22;275;48.492;9.214;2023-02-26T08:32:04;1.80;37.80
578;DHT22;275;48.492;9.214;2023-02-26T08:34:31;1.90;37.70
578;DHT22;275;48.492;9.214;2023-02-26T08:36:58;1.20;39.80
578;DHT22;275;48.492;9.214;2023-02-26T08:39:26;0.50;41.70
578;DHT22;275;48.492;9.214;2023-02-26T08:41:53;0.50;41.50
578;DHT22;275;48.492;9.214;2023-02-26T08:44:20;1.10;41.10
578;DHT22;275;48.492;9.214;2023-02-26T08:46:46;2.00;39.60
578;DHT22;275;48.492;9.214;2023-02-26T08:49:13;2.40;38.50
578;DHT22;275;48.492;9.214;2023-02-26T08:51:40;2.10;38.10
578;DHT22;275;48.492;9.214;2023-02-26T08:54:07;1.30;39.60
578;DHT22;275;48.492;9.214;2023-02-26T08:56:35;1.60;38.80
578;DHT22;275;48.492;9.214;2023-02-26T08:59:02;1.10;39.30
578;DHT22;275;48.492;9.214;2023-02-26T09:01:29;0.90;40.30
578;DHT22;275;48.492;9.214;2023-02-26T09:03:56;0.70;39.90
578;DHT22;275;48.492;9.214;2023-02-26T09:06:23;0.70;40.10
578;DHT22;275;48.492;9.214;2023-02-26T09:08:49;0.50;41.10
578;DHT22;275;48.492;9.214;2023-02-26T09:11:16;0.70;39.50
578;DHT22;275;48.492;9.214;2023-02-26T09:13:44;1.30;38.20
578;DHT22;275;48.492;9.214;2023-02-26T09:16:11;1.40;39.00
578;DHT22;275;48.492;9.214;2023-02-26T09:18:38;1.50;36.10
578;DHT22;275;48.492;9.214;2023-02-26T09:21:05;1.30;37.10
578;DHT22;275;48.492;9.214;2023-02-26T09:23:32;1.30;37.60
578;DHT22;275;48.492;9.214;2023-02-26T09:25:58;1.40;37.60
578;DHT22;275;48.492;9.214;2023-02-26T09:28:25;1.30;37.40
578;DHT22;275;48.492;9.214;2023-02-26T09:30:54;1.20;35.90
578;DHT22;275;48.492;9.214;2023-02-26T09:33:21;1.20;35.90
578;DHT22;275;48.492;9.214;2023-02-26T09:35:49;1.30;35.80
578;DHT22;275;48.492;9.214;2023-02-26T09:38:16;1.60;36.10
578;DHT22;275;48.492;9.214;2023-02-26T09:40:46;1.70;35.60
578;DHT22;275;48.492;9.214;2023-02-26T09:43:35;1.50;34.50
578;DHT22;275;48.492;9.214;2023-02-26T09:46:14;0.90;36.40
578;DHT22;275;48.492;9.214;2023-02-26T09:48:44;0.90;35.40
578;DHT22;275;48.492;9.214;2023-02-26T09:51:15;1.30;35.20
578;DHT22;275;48.492;9.214;2023-02-26T09:53:45;1.70;34.40
578;DHT22;275;48.492;9.214;2023-02-26T09:56:16;1.50;34.30
578;DHT22;275;48.492;9.214;2023-02-26T09:58:44;1.10;34.80
578;DHT22;275;48.492;9.214;2023-02-26T10:01:17;1.30;34.90
578;DHT22;275;48.492;9.214;2023-02-26T10:03:55;1.70;33.60
578;DHT22;275;48.492;9.214;2023-02-26T10:06:28;1.80;33.50
578;DHT22;275;48.492;9.214;2023-02-26T10:09:16;1.20;35.10
578;DHT22;275;48.492;9.214;2023-02-26T10:11:51;1.30;34.70
578;DHT22;275;48.492;9.214;2023-02-26T10:14:23;1.40;35.20
578;DHT22;275;48.492;9.214;2023-02-26T10:16:57;2.10;33.70
578;DHT22;275;48.492;9.214;2023-02-26T10:19:28;2.90;32.40
578;DHT22;275;48.492;9.214;2023-02-26T10:21:59;2.60;31.70
578;DHT22;275;48.492;9.214;2023-02-26T10:24:30;2.60;32.40
578;DHT22;275;48.492;9.214;2023-02-26T10:27:03;3.00;31.60
578;DHT22;275;48.492;9.214;2023-02-26T10:29:33;3.40;30.20
578;DHT22;275;48.492;9.214;2023-02-26T10:32:11;3.50;30.10
578;DHT22;275;48.492;9.214;2023-02-26T10:34:48;2.80;30.50
578;DHT22;275;48.492;9.214;2023-02-26T10:37:18;1.80;33.20
578;DHT22;275;48.492;9.214;2023-02-26T10:39:49;2.20;31.90
578;DHT22;275;48.492;9.214;2023-02-26T10:42:20;2.50;31.90
578;DHT22;275;48.492;9.214;2023-02-26T10:44:59;3.00;31.10
578;DHT22;275;48.492;9.214;2023-02-26T10:47:37;3.10;30.20
578;DHT22;275;48.492;9.214;2023-02-26T10:50:09;2.80;31.10
578;DHT22;275;48.492;9.214;2023-02-26T10:52:36;2.50;32.10
578;DHT22;275;48.492;9.214;2023-02-26T10:55:32;2.00;34.10
578;DHT22;275;48.492;9.214;2023-02-26T10:58:04;2.40;33.90
578;DHT22;275;48.492;9.214;2023-02-26T11:00:32;2.20;33.40
578;DHT22;275;48.492;9.214;2023-02-26T11:03:03;2.10;33.70
578;DHT22;275;48.492;9.214;2023-02-26T11:05:32;1.70;34.00
578;DHT22;275;48.492;9.214;2023-02-26T11:08:02;1.40;35.90
578;DHT22;275;48.492;9.214;2023-02-26T11:10:39;1.30;43.10
578;DHT22;275;48.492;9.214;2023-02-26T11:13:06;1.60;36.10
578;DHT22;275;48.492;9.214;2023-02-26T11:15:34;1.70;36.40
578;DHT22;275;48.492;9.214;2023-02-26T11:18:03;1.80;35.90
578;DHT22;275;48.492;9.214;2023-02-26T11:20:33;2.10;36.40
578;DHT22;275;48.492;9.214;2023-02-26T11:23:03;2.50;35.60
578;DHT22;275;48.492;9.214;2023-02-26T11:25:31;2.40;33.80
578;DHT22;275;48.492;9.214;2023-02-26T11:28:01;1.90;35.00
578;DHT22;275;48.492;9.214;2023-02-26T11:30:30;2.00;34.80
578;DHT22;275;48.492;9.214;2023-02-26T11:33:10;1.90;35.70
578;DHT22;275;48.492;9.214;2023-02-26T11:35:39;1.90;34.80
578;DHT22;275;48.492;9.214;2023-02-26T11:38:15;1.90;36.10
578;DHT22;275;48.492;9.214;2023-02-26T11:40:46;2.10;35.20
578;DHT22;275;48.492;9.214;2023-02-26T11:43:16;2.20;34.80
578;DHT22;275;48.492;9.214;2023-02-26T11:45:46;2.10;35.50
578;DHT22;275;48.492;9.214;2023-02-26T11:48:19;2.20;35.10
578;DHT22;275;48.492;9.214;2023-02-26T11:50:52;2.50;34.60
578;DHT22;275;48.492;9.214;2023-02-26T11:53:24;2.60;34.50
578;DHT22;275;48.492;9.214;2023-02-26T11:55:58;2.10;35.10
578;DHT22;275;48.492;9.214;2023-02-26T11:58:28;2.00;36.40
578;DHT22;275;48.492;9.214;2023-02-26T12:00:58;1.60;36.00
578;DHT22;275;48.492;9.214;2023-02-26T12:03:30;1.70;36.60
578;DHT22;275;48.492;9.214;2023-02-26T12:05:58;2.10;35.50
578;DHT22;275;48.492;9.214;2023-02-26T12:08:29;2.50;35.10
578;DHT22;275;48.492;9.214;2023-02-26T12:11:16;2.60;33.60
578;DHT22;275;48.492;9.214;2023-02-26T12:14:00;2.30;35.30
578;DHT22;275;48.492;9.214;2023-02-26T12:16:36;2.50;34.60
578;DHT22;275;48.492;9.214;2023-02-26T12:19:11;2.10;34.80
578;DHT22;275;48.492;9.214;2023-02-26T12:22:08;1.70;37.10
578;DHT22;275;48.492;9.214;2023-02-26T12:27:41;1.80;38.80
578;DHT22;275;48.492;9.214;2023-02-26T12:30:24;2.40;37.50
578;DHT22;275;48.492;9.214;2023-02-26T12:33:09;2.60;37.10
578;DHT22;275;48.492;9.214;2023-02-26T12:35:46;2.70;36.30
578;DHT22;275;48.492;9.214;2023-02-26T12:38:24;2.50;38.00
578;DHT22;275;48.492;9.214;2023-02-26T12:41:18;1.90;37.30
578;DHT22;275;48.492;9.214;2023-02-26T12:43:50;1.70;39.80
578;DHT22;275;48.492;9.214;2023-02-26T12:46:39;1.80;38.80
578;DHT22;275;48.492;9.214;2023-02-26T12:49:24;2.20;38.10
578;DHT22;275;48.492;9.214;2023-02-26T12:52:13;2.40;37.80
578;DHT22;275;48.492;9.214;2023-02-26T12:54:52;2.30;38.20
578;DHT22;275;48.492;9.214;2023-02-26T12:57:41;1.50;41.90
578;DHT22;275;48.492;9.214;2023-02-26T13:00:33;1.40;42.70
578;DHT22;275;48.492;9.214;2023-02-26T13:03:32;1.90;41.60
578;DHT22;275;48.492;9.214;2023-02-26T13:06:39;2.10;41.50
578;DHT22;275;48.492;9.214;2023-02-26T13:09:21;2.10;41.50
578;DHT22;275;48.492;9.214;2023-02-26T13:12:01;2.40;41.70
578;DHT22;275;48.492;9.214;2023-02-26T13:14:40;2.30;40.00
578;DHT22;275;48.492;9.214;2023-02-26T13:17:17;2.60;40.10
578;DHT22;275;48.492;9.214;2023-02-26T13:19:50;2.30;38.60
578;DHT22;275;48.492;9.214;2023-02-26T13:22:21;2.00;40.40
578;DHT22;275;48.492;9.214;2023-02-26T13:24:54;2.30;39.60
578;DHT22;275;48.492;9.214;2023-02-26T13:27:24;2.00;38.40
578;DHT22;275;48.492;9.214;2023-02-26T13:30:03;1.80;39.00
578;DHT22;275;48.492;9.214;2023-02-26T13:32:33;2.00;39.50
578;DHT22;275;48.492;9.214;2023-02-26T13:35:03;2.50;37.70
578;DHT22;275;48.492;9.214;2023-02-26T13:37:37;2.20;38.40
578;DHT22;275;48.492;9.214;2023-02-26T13:40:39;2.30;38.50
578;DHT22;275;48.492;9.214;2023-02-26T13:43:18;2.90;38.00
578;DHT22;275;48.492;9.214;2023-02-26T13:45:54;2.70;37.20
578;DHT22;275;48.492;9.214;2023-02-26T13:48:32;2.70;36.30
578;DHT22;275;48.492;9.214;2023-02-26T13:51:08;2.70;36.00
578;DHT22;275;48.492;9.214;2023-02-26T13:54:01;2.80;34.90
578;DHT22;275;48.492;9.214;2023-02-26T13:59:36;3.30;33.70
578;DHT22;275;48.492;9.214;2023-02-26T14:02:35;2.70;34.90
578;DHT22;275;48.492;9.214;2023-02-26T14:05:09;2.60;36.40
578;DHT22;275;48.492;9.214;2023-02-26T14:07:47;2.30;36.00
578;DHT22;275;48.492;9.214;2023-02-26T14:10:15;2.00;36.90
578;DHT22;275;48.492;9.214;2023-02-26T14:12:45;2.00;37.70
578;DHT22;275;48.492;9.214;2023-02-26T14:15:28;2.20;35.80
578;DHT22;275;48.492;9.214;2023-02-26T14:18:04;2.30;35.10
578;DHT22;275;48.492;9.214;2023-02-26T14:20:33;2.50;32.90
578;DHT22;275;48.492;9.214;2023-02-26T14:26:04;2.60;31.70
578;DHT22;275;48.492;9.214;2023-02-26T14:28:53;2.40;32.80
578;DHT22;275;48.492;9.214;2023-02-26T14:31:22;2.70;33.30
578;DHT22;275;48.492;9.214;2023-02-26T14:34:05;2.70;32.30
578;DHT22;275;48.492;9.214;2023-02-26T14:36:40;2.90;31.80
578;DHT22;275;48.492;9.214;2023-02-26T14:39:20;3.40;30.80
578;DHT22;275;48.492;9.214;2023-02-26T14:41:48;3.80;29.80
578;DHT22;275;48.492;9.214;2023-02-26T14:44:20;3.50;30.90
578;DHT22;275;48.492;9.214;2023-02-26T14:46:49;3.50;30.20
578;DHT22;275;48.492;9.214;2023-02-26T14:49:20;3.60;29.00
578;DHT22;275;48.492;9.214;2023-02-26T14:51:59;4.00;29.30
578;DHT22;275;48.492;9.214;2023-02-26T14:54:37;3.70;28.80
578;DHT22;275;48.492;9.214;2023-02-26T14:57:12;3.00;29.30
578;DHT22;275;48.492;9.214;2023-02-26T15:00:03;2.90;34.20
578;DHT22;275;48.492;9.214;2023-02-26T15:02:46;3.00;33.10
578;DHT22;275;48.492;9.214;2023-02-26T15:05:31;2.60;35.70
578;DHT22;275;48.492;9.214;2023-02-26T15:08:21;2.60;35.60
578;DHT22;275;48.492;9.214;2023-02-26T15:11:03;2.00;36.90
578;DHT22;275;48.492;9.214;2023-02-26T15:13:44;2.00;36.50
578;DHT22;275;48.492;9.214;2023-02-26T15:16:24;2.20;35.50
578;DHT22;275;48.492;9.214;2023-02-26T15:21:56;2.50;34.60
578;DHT22;275;48.492;9.214;2023-02-26T15:24:26;2.30;35.10
578;DHT22;275;48.492;9.214;2023-02-26T15:26:57;2.40;34.80
578;DHT22;275;48.492;9.214;2023-02-26T15:29:28;2.80;33.20
578;DHT22;275;48.492;9.214;2023-02-26T15:31:59;3.00;32.80
578;DHT22;275;48.492;9.214;2023-02-26T15:34:28;3.00;31.60
578;DHT22;275;48.492;9.214;2023-02-26T15:36:57;2.70;30.90
578;DHT22;275;48.492;9.214;2023-02-26T15:39:25;3.20;29.80
578;DHT22;275;48.492;9.214;2023-02-26T15:41:54;3.10;30.00
578;DHT22;275;48.492;9.214;2023-02-26T15:44:24;2.90;32.10
578;DHT22;275;48.492;9.214;2023-02-26T15:46:55;2.70;32.80
578;DHT22;275;48.492;9.214;2023-02-26T15:49:27;2.20;37.60
578;DHT22;275;48.492;9.214;2023-02-26T15:51:56;1.90;39.50
578;DHT22;275;48.492;9.214;2023-02-26T15:54:29;1.60;40.40
578;DHT22;275;48.492;9.214;2023-02-26T15:56:59;1.50;37.90
578;DHT22;275;48.492;9.214;2023-02-26T15:59:29;1.60;38.30
578;DHT22;275;48.492;9.214;2023-02-26T16:01:57;1.80;37.50
578;DHT22;275;48.492;9.214;2023-02-26T16:04:25;1.90;37.30
578;DHT22;275;48.492;9.214;2023-02-26T16:06:54;2.10;35.90
578;DHT22;275;48.492;9.214;2023-02-26T16:09:26;2.00;35.50
578;DHT22;275;48.492;9.214;2023-02-26T16:11:55;1.90;35.50
578;DHT22;275;48.492;9.214;2023-02-26T16:14:28;2.10;38.30
578;DHT22;275;48.492;9.214;2023-02-26T16:16:56;1.80;41.30
578;DHT22;275;48.492;9.214;2023-02-26T16:19:32;1.70;42.20
578;DHT22;275;48.492;9.214;2023-02-26T16:22:02;1.50;42.80
578;DHT22;275;48.492;9.214;2023-02-26T16:24:30;1.50;42.60
578;DHT22;275;48.492;9.214;2023-02-26T16:27:00;1.60;41.10
578;DHT22;275;48.492;9.214;2023-02-26T16:29:30;2.00;39.10
578;DHT22;275;48.492;9.214;2023-02-26T16:32:02;2.30;39.70
578;DHT22;275;48.492;9.214;2023-02-26T16:34:39;2.00;38.60
578;DHT22;275;48.492;9.214;2023-02-26T16:37:22;1.80;38.30
578;DHT22;275;48.492;9.214;2023-02-26T16:39:53;2.00;37.20
578;DHT22;275;48.492;9.214;2023-02-26T16:42:31;2.50;35.80
578;DHT22;275;48.492;9.214;2023-02-26T16:45:16;2.50;36.20
578;DHT22;275;48.492;9.214;2023-02-26T16:47:46;2.00;35.80
578;DHT22;275;48.492;9.214;2023-02-26T16:50:19;1.90;36.60
578;DHT22;275;48.492;9.214;2023-02-26T16:52:51;2.40;35.90
578;DHT22;275;48.492;9.214;2023-02-26T16:55:19;2.70;35.40
578;DHT22;275;48.492;9.214;2023-02-26T16:57:46;2.40;35.20
578;DHT22;275;48.492;9.214;2023-02-26T17:00:17;2.10;36.00
578;DHT22;275;48.492;9.214;2023-02-26T17:02:55;2.00;37.00
578;DHT22;275;48.492;9.214;2023-02-26T17:05:26;2.30;35.50
578;DHT22;275;48.492;9.214;2023-02-26T17:08:00;2.30;35.30
578;DHT22;275;48.492;9.214;2023-02-26T17:10:31;2.20;35.80
578;DHT22;275;48.492;9.214;2023-02-26T17:13:09;2.20;33.30
578;DHT22;275;48.492;9.214;2023-02-26T17:15:38;2.30;33.10
578;DHT22;275;48.492;9.214;2023-02-26T17:18:05;2.40;32.40
578;DHT22;275;48.492;9.214;2023-02-26T17:20:34;2.10;31.20
578;DHT22;275;48.492;9.214;2023-02-26T17:23:04;1.90;32.70
578;DHT22;275;48.492;9.214;2023-02-26T17:25:34;1.90;31.00
578;DHT22;275;48.492;9.214;2023-02-26T17:28:02;1.90;31.30
578;DHT22;275;48.492;9.214;2023-02-26T17:30:29;1.80;29.80
578;DHT22;275;48.492;9.214;2023-02-26T17:32:58;1.90;29.80
578;DHT22;275;48.492;9.214;2023-02-26T17:35:25;2.10;30.00